Time,TemperatureF,DewpointF,PressureIn,WindDirection,WindDirectionDegrees,WindSpeedMPH,WindSpeedGustMPH,Humidity,HourlyPrecipIn,Conditions,Clouds,dailyrainin,SoftwareType,DateUTC
2013-06-25 00:00:00,70.9,67.8,29.82,SSW,205,0.0,0.0,90,0.00,,,0.00,VWS V14.01,2013-06-25 05:00:00,
2013-06-25 00:01:00,70.9,67.8,29.82,SSW,205,0.0,0.0,90,0.00,,BKN250,0.00,VWS V14.01,2013-06-25 05:01:00,
2013-06-25 00:05:00,70.9,68.2,29.82,SSW,205,0.0,0.0,91,0.00,,,0.00,VWS V14.01,2013-06-25 05:05:00,
2013-06-25 00:06:00,70.9,68.2,29.81,SSW,205,0.0,0.0,91,0.00,,BKN250,0.00,VWS V14.01,2013-06-25 05:06:00,
2013-06-25 00:10:00,70.8,68.1,29.81,SSW,205,0.0,0.0,91,0.00,,,0.00,VWS V14.01,2013-06-25 05:10:00,
2013-06-25 00:11:00,70.9,68.2,29.81,SSW,205,0.0,0.0,91,0.00,,BKN250,0.00,VWS V14.01,2013-06-25 05:11:00,
2013-06-25 00:15:00,70.9,68.2,29.81,SSW,205,0.0,0.0,91,0.00,,,0.00,VWS V14.01,2013-06-25 05:15:00,
2013-06-25 00:16:00,70.9,68.2,29.81,SSW,205,0.0,0.0,91,0.00,,BKN250,0.00,VWS V14.01,2013-06-25 05:16:00,
2013-06-25 00:20:00,70.9,68.2,29.81,SSW,205,0.0,1.0,91,0.00,,,0.00,VWS V14.01,2013-06-25 05:20:00,
2013-06-25 00:21:00,70.9,68.2,29.80,SSW,205,0.0,1.0,91,0.00,,BKN250,0.00,VWS V14.01,2013-06-25 05:21:00,
2013-06-25 00:25:00,70.9,68.2,29.80,SSW,205,0.0,0.0,91,0.00,,,0.00,VWS V14.01,2013-06-25 05:25:00,
2013-06-25 00:26:00,70.9,68.2,29.80,SSW,205,0.0,0.0,91,0.00,,BKN250,0.00,VWS V14.01,2013-06-25 05:26:00,
2013-06-25 00:30:00,70.9,68.2,29.80,SSW,205,0.0,1.0,91,0.00,,,0.00,VWS V14.01,2013-06-25 05:30:00,
2013-06-25 00:31:00,70.9,68.2,29.80,SSW,205,0.0,0.0,91,0.00,,BKN250,0.00,VWS V14.01,2013-06-25 05:31:00,
2013-06-25 00:35:00,70.9,68.2,29.80,SSW,202,0.0,5.0,91,0.00,,,0.00,VWS V14.01,2013-06-25 05:35:00,
2013-06-25 00:36:00,70.8,68.1,29.80,SSW,206,0.0,5.0,91,0.00,,BKN250,0.00,VWS V14.01,2013-06-25 05:36:00,
2013-06-25 00:40:00,70.8,68.1,29.79,SSW,194,0.0,1.0,91,0.00,,,0.00,VWS V14.01,2013-06-25 05:40:00,
2013-06-25 00:41:00,70.8,68.1,29.79,South,189,0.0,1.0,91,0.00,,BKN250,0.00,VWS V14.01,2013-06-25 05:41:00,
2013-06-25 00:45:00,70.8,68.1,29.79,SSW,193,0.0,3.0,91,0.00,,,0.00,VWS V14.01,2013-06-25 05:45:00,
2013-06-25 00:46:00,70.9,68.2,29.79,SSW,200,4.0,7.0,91,0.00,,BKN250,0.00,VWS V14.01,2013-06-25 05:46:00,
2013-06-25 00:50:00,71.0,67.9,29.79,North,360,8.0,8.0,90,0.00,,,0.00,VWS V14.01,2013-06-25 05:50:00,
2013-06-25 00:51:00,71.0,67.9,29.79,North,360,8.0,10.0,90,0.00,,BKN250,0.00,VWS V14.01,2013-06-25 05:51:00,
2013-06-25 00:55:00,71.0,67.9,29.79,North,360,6.0,11.0,90,0.00,,,0.00,VWS V14.01,2013-06-25 05:55:00,
2013-06-25 00:56:00,71.0,67.9,29.79,SW,218,8.0,11.0,90,0.00,,BKN250,0.00,VWS V14.01,2013-06-25 05:56:00,
2013-06-25 01:00:00,71.1,68.0,29.79,North,360,9.0,11.0,90,0.00,,,0.00,VWS V14.01,2013-06-25 06:00:00,
2013-06-25 01:02:00,71.1,68.0,29.80,SSW,210,6.0,10.0,90,0.00,,BKN250,0.00,VWS V14.01,2013-06-25 06:02:00,
2013-06-25 01:05:00,71.2,68.1,29.79,North,360,4.0,11.0,90,0.00,,,0.00,VWS V14.01,2013-06-25 06:05:00,
2013-06-25 01:07:00,71.2,68.4,29.80,North,360,7.0,11.0,91,0.00,,BKN250,0.00,VWS V14.01,2013-06-25 06:07:00,
2013-06-25 01:10:00,71.2,68.4,29.79,South,180,6.0,11.0,91,0.00,,,0.00,VWS V14.01,2013-06-25 06:10:00,
2013-06-25 01:12:00,71.2,68.4,29.79,SSW,198,0.0,7.0,91,0.00,,BKN250,0.00,VWS V14.01,2013-06-25 06:12:00,
2013-06-25 01:15:00,71.3,68.5,29.79,SSW,206,3.0,9.0,91,0.00,,,0.00,VWS V14.01,2013-06-25 06:15:00,
2013-06-25 01:17:00,71.3,68.5,29.80,SSW,194,0.0,9.0,91,0.00,,BKN250,0.00,VWS V14.01,2013-06-25 06:17:00,
2013-06-25 01:20:00,71.3,68.5,29.80,SSW,202,3.0,9.0,91,0.00,,,0.00,VWS V14.01,2013-06-25 06:20:00,
2013-06-25 01:22:00,71.3,68.5,29.80,SW,231,2.0,9.0,91,0.00,,BKN250,0.00,VWS V14.01,2013-06-25 06:22:00,
2013-06-25 01:25:00,71.2,68.4,29.80,South,186,7.0,9.0,91,0.00,,,0.00,VWS V14.01,2013-06-25 06:25:00,
2013-06-25 01:27:00,71.2,68.4,29.80,SSW,211,4.0,9.0,91,0.00,,BKN250,0.00,VWS V14.01,2013-06-25 06:27:00,
2013-06-25 01:30:00,71.2,68.4,29.80,SW,221,5.0,9.0,91,0.00,,,0.00,VWS V14.01,2013-06-25 06:30:00,
2013-06-25 01:32:00,71.2,68.8,29.80,SSW,202,3.0,9.0,92,0.00,,OVC250,0.00,VWS V14.01,2013-06-25 06:32:00,
2013-06-25 01:35:00,71.2,68.8,29.80,SSW,207,0.0,8.0,92,0.00,,,0.00,VWS V14.01,2013-06-25 06:35:00,
2013-06-25 01:37:00,71.2,68.8,29.81,SW,219,6.0,12.0,92,0.00,,OVC250,0.00,VWS V14.01,2013-06-25 06:37:00,
2013-06-25 01:40:00,71.3,68.9,29.81,WSW,241,0.0,12.0,92,0.00,,,0.00,VWS V14.01,2013-06-25 06:40:00,
2013-06-25 01:42:00,71.3,68.9,29.80,SSW,205,5.0,8.0,92,0.00,,OVC250,0.00,VWS V14.01,2013-06-25 06:42:00,
2013-06-25 01:45:00,71.3,68.9,29.80,SW,236,2.0,12.0,92,0.00,,,0.00,VWS V14.01,2013-06-25 06:45:00,
2013-06-25 01:47:00,71.2,68.8,29.80,SW,225,6.0,9.0,92,0.00,,OVC250,0.00,VWS V14.01,2013-06-25 06:47:00,
2013-06-25 01:50:00,71.2,68.8,29.81,SW,222,3.0,11.0,92,0.00,,,0.00,VWS V14.01,2013-06-25 06:50:00,
2013-06-25 01:52:00,71.2,68.8,29.81,WSW,245,2.0,13.0,92,0.00,,OVC250,0.00,VWS V14.01,2013-06-25 06:52:00,
2013-06-25 01:55:00,71.1,69.0,29.80,WSW,247,4.0,13.0,93,0.00,,,0.00,VWS V14.01,2013-06-25 06:55:00,
2013-06-25 01:57:00,71.2,69.1,29.80,South,179,4.0,10.0,93,0.00,,OVC250,0.00,VWS V14.01,2013-06-25 06:57:00,
2013-06-25 02:00:00,71.1,69.0,29.80,WSW,241,3.0,10.0,93,0.00,,,0.00,VWS V14.01,2013-06-25 07:00:00,
2013-06-25 02:02:00,71.2,69.1,29.80,SW,223,1.0,12.0,93,0.00,,OVC100,0.00,VWS V14.01,2013-06-25 07:02:00,
2013-06-25 02:05:00,71.1,69.0,29.80,SW,221,1.0,12.0,93,0.00,,,0.00,VWS V14.01,2013-06-25 07:05:00,
2013-06-25 02:07:00,71.2,69.1,29.79,WSW,238,2.0,5.0,93,0.00,,OVC100,0.00,VWS V14.01,2013-06-25 07:07:00,
2013-06-25 02:10:00,71.1,69.0,29.79,WSW,238,0.0,4.0,93,0.00,,,0.00,VWS V14.01,2013-06-25 07:10:00,
2013-06-25 02:12:00,71.1,69.0,29.79,WSW,244,0.0,4.0,93,0.00,,OVC100,0.00,VWS V14.01,2013-06-25 07:12:00,
2013-06-25 02:15:00,71.1,69.0,29.79,SW,218,4.0,4.0,93,0.00,,,0.00,VWS V14.01,2013-06-25 07:15:00,
2013-06-25 02:17:00,71.1,69.0,29.79,WSW,245,0.0,4.0,93,0.00,,OVC100,0.00,VWS V14.01,2013-06-25 07:17:00,
2013-06-25 02:20:00,71.1,69.0,29.80,WSW,245,1.0,3.0,93,0.00,,,0.00,VWS V14.01,2013-06-25 07:20:00,
2013-06-25 02:22:00,71.0,68.9,29.80,West,260,0.0,6.0,93,0.00,,OVC100,0.00,VWS V14.01,2013-06-25 07:22:00,
2013-06-25 02:25:00,71.0,68.9,29.80,SSW,206,0.0,6.0,93,0.00,,,0.00,VWS V14.01,2013-06-25 07:25:00,
2013-06-25 02:27:00,70.8,68.7,29.80,SW,234,0.0,4.0,93,0.01,,OVC100,0.01,VWS V14.01,2013-06-25 07:27:00,
2013-06-25 02:30:00,70.8,68.7,29.79,WSW,243,0.0,6.0,93,0.01,,,0.01,VWS V14.01,2013-06-25 07:30:00,
2013-06-25 02:33:00,70.7,68.3,29.80,WSW,244,3.0,11.0,92,0.01,,OVC100,0.01,VWS V14.01,2013-06-25 07:33:00,
2013-06-25 02:35:00,70.7,68.3,29.81,SW,231,18.0,18.0,92,0.01,,,0.01,VWS V14.01,2013-06-25 07:35:00,
2013-06-25 02:38:00,70.6,68.2,29.81,SW,232,8.0,18.0,92,0.01,,OVC100,0.01,VWS V14.01,2013-06-25 07:38:00,
2013-06-25 02:40:00,70.6,68.2,29.81,SSW,211,6.0,18.0,92,0.01,,,0.01,VWS V14.01,2013-06-25 07:40:00,
2013-06-25 02:43:00,70.4,67.7,29.82,SW,217,5.0,16.0,91,0.02,,OVC100,0.02,VWS V14.01,2013-06-25 07:43:00,
2013-06-25 02:45:00,70.3,67.6,29.82,WSW,238,11.0,16.0,91,0.02,,,0.02,VWS V14.01,2013-06-25 07:45:00,
2013-06-25 02:48:00,70.0,66.9,29.82,WSW,237,6.0,18.0,90,0.03,,OVC100,0.03,VWS V14.01,2013-06-25 07:48:00,
2013-06-25 02:50:00,69.8,67.1,29.82,SW,217,4.0,18.0,91,0.04,,,0.04,VWS V14.01,2013-06-25 07:50:00,
2013-06-25 02:53:00,69.6,66.9,29.82,SW,231,7.0,16.0,91,0.04,,OVC100,0.04,VWS V14.01,2013-06-25 07:53:00,
2013-06-25 02:55:00,69.4,66.7,29.82,SW,233,1.0,17.0,91,0.05,,,0.05,VWS V14.01,2013-06-25 07:55:00,
2013-06-25 02:58:00,69.2,66.8,29.82,West,263,8.0,17.0,92,0.06,,OVC100,0.06,VWS V14.01,2013-06-25 07:58:00,
2013-06-25 03:00:00,69.1,66.7,29.82,SW,214,0.0,13.0,92,0.07,,,0.07,VWS V14.01,2013-06-25 08:00:00,
2013-06-25 03:03:00,68.8,66.4,29.82,North,360,11.0,18.0,92,0.08,,,0.08,VWS V14.01,2013-06-25 08:03:00,
2013-06-25 03:05:00,68.7,66.3,29.82,WSW,244,4.0,14.0,92,0.09,,,0.09,VWS V14.01,2013-06-25 08:05:00,
2013-06-25 03:08:00,68.5,66.4,29.82,WSW,252,12.0,19.0,93,0.11,,,0.11,VWS V14.01,2013-06-25 08:08:00,
2013-06-25 03:10:00,68.4,66.3,29.82,West,261,6.0,19.0,93,0.11,,,0.11,VWS V14.01,2013-06-25 08:10:00,
2013-06-25 03:13:00,68.3,66.2,29.83,West,265,3.0,17.0,93,0.12,,,0.12,VWS V14.01,2013-06-25 08:13:00,
2013-06-25 03:15:00,68.3,66.5,29.83,WSW,254,6.0,14.0,94,0.12,,,0.12,VWS V14.01,2013-06-25 08:15:00,
2013-06-25 03:18:00,68.1,66.3,29.83,WSW,256,5.0,11.0,94,0.13,,,0.13,VWS V14.01,2013-06-25 08:18:00,
2013-06-25 03:20:00,68.1,66.3,29.83,SW,215,1.0,12.0,94,0.13,,,0.13,VWS V14.01,2013-06-25 08:20:00,
2013-06-25 03:23:00,68.1,66.3,29.83,West,263,1.0,12.0,94,0.15,,,0.15,VWS V14.01,2013-06-25 08:23:00,
2013-06-25 03:25:00,68.1,66.3,29.83,SSW,203,0.0,10.0,94,0.16,,,0.16,VWS V14.01,2013-06-25 08:25:00,
2013-06-25 03:28:00,68.0,66.2,29.83,SW,236,0.0,10.0,94,0.17,,,0.17,VWS V14.01,2013-06-25 08:28:00,
2013-06-25 03:30:00,68.0,66.2,29.83,WSW,250,2.0,10.0,94,0.18,,,0.18,VWS V14.01,2013-06-25 08:30:00,
2013-06-25 03:33:00,68.0,66.5,29.82,SSW,196,1.0,8.0,95,0.17,,,0.19,VWS V14.01,2013-06-25 08:33:00,
2013-06-25 03:35:00,68.0,66.5,29.81,South,180,0.0,7.0,95,0.19,,,0.20,VWS V14.01,2013-06-25 08:35:00,
2013-06-25 03:39:00,68.0,66.5,29.81,West,259,1.0,3.0,95,0.19,,,0.21,VWS V14.01,2013-06-25 08:39:00,
2013-06-25 03:40:00,68.0,66.5,29.81,WSW,249,0.0,3.0,95,0.20,,,0.21,VWS V14.01,2013-06-25 08:40:00,
2013-06-25 03:45:00,67.9,66.4,29.80,North,0,0.0,0.0,95,0.21,,,0.22,VWS V14.01,2013-06-25 08:45:00,
2013-06-25 03:50:00,68.0,66.5,29.81,West,270,0.0,3.0,95,0.22,,,0.24,VWS V14.01,2013-06-25 08:50:00,
2013-06-25 03:55:00,67.9,66.4,29.81,SW,225,0.0,4.0,95,0.21,,,0.25,VWS V14.01,2013-06-25 08:55:00,
2013-06-25 04:00:00,67.9,66.4,29.80,SW,225,0.0,0.0,95,0.21,,,0.26,VWS V14.01,2013-06-25 09:00:00,
2013-06-25 04:05:00,67.9,66.7,29.79,SW,225,0.0,0.0,96,0.20,,,0.27,VWS V14.01,2013-06-25 09:05:00,
2013-06-25 04:10:00,67.9,66.7,29.79,SW,225,0.0,0.0,96,0.19,,,0.28,VWS V14.01,2013-06-25 09:10:00,
2013-06-25 04:15:00,67.9,66.7,29.78,South,180,1.0,6.0,96,0.18,,,0.29,VWS V14.01,2013-06-25 09:15:00,
2013-06-25 04:20:00,68.0,66.8,29.78,South,180,0.0,4.0,96,0.18,,,0.30,VWS V14.01,2013-06-25 09:20:00,
2013-06-25 04:25:00,68.0,66.8,29.79,South,180,2.0,7.0,96,0.18,,,0.31,VWS V14.01,2013-06-25 09:25:00,
2013-06-25 04:30:00,67.9,66.7,29.79,South,180,1.0,6.0,96,0.16,,,0.32,VWS V14.01,2013-06-25 09:30:00,
2013-06-25 04:35:00,67.9,66.7,29.80,South,180,1.0,7.0,96,0.15,,,0.33,VWS V14.01,2013-06-25 09:35:00,
2013-06-25 04:40:00,67.9,66.4,29.79,South,180,0.0,0.0,95,0.14,,,0.34,VWS V14.01,2013-06-25 09:40:00,
2013-06-25 04:45:00,67.8,66.3,29.81,SSW,202,1.0,5.0,95,0.15,,,0.36,VWS V14.01,2013-06-25 09:45:00,
2013-06-25 04:50:00,67.8,66.3,29.81,SSW,202,1.0,5.0,95,0.15,,,0.37,VWS V14.01,2013-06-25 09:50:00,
2013-06-25 04:55:00,67.8,66.3,29.82,West,270,0.0,4.0,95,0.15,,,0.39,VWS V14.01,2013-06-25 09:55:00,
2013-06-25 05:00:00,67.8,66.6,29.83,West,270,5.0,12.0,96,0.15,,,0.40,VWS V14.01,2013-06-25 10:00:00,
2013-06-25 05:05:00,67.7,66.5,29.82,West,270,4.0,12.0,96,0.16,,,0.42,VWS V14.01,2013-06-25 10:05:00,
2013-06-25 05:10:00,67.7,66.5,29.80,WSW,248,0.0,5.0,96,0.16,,,0.43,VWS V14.01,2013-06-25 10:10:00,
2013-06-25 05:15:00,67.7,66.5,29.81,SW,225,1.0,8.0,96,0.16,,,0.44,VWS V14.01,2013-06-25 10:15:00,
2013-06-25 05:20:00,67.6,66.4,29.81,SW,225,3.0,9.0,96,0.16,,,0.45,VWS V14.01,2013-06-25 10:20:00,
2013-06-25 05:25:00,67.6,66.4,29.80,South,180,3.0,8.0,96,0.16,,,0.46,VWS V14.01,2013-06-25 10:25:00,
2013-06-25 05:30:00,67.5,66.3,29.82,SSW,202,3.0,9.0,96,0.15,,,0.46,VWS V14.01,2013-06-25 10:30:00,
2013-06-25 05:35:00,67.5,66.3,29.82,SSW,202,6.0,12.0,96,0.15,,,0.47,VWS V14.01,2013-06-25 10:35:00,
2013-06-25 05:40:00,67.4,66.2,29.81,SSW,202,11.0,19.0,96,0.15,,,0.48,VWS V14.01,2013-06-25 10:40:00,
2013-06-25 05:45:00,67.2,66.0,29.81,SSW,202,8.0,20.0,96,0.14,,,0.48,VWS V14.01,2013-06-25 10:45:00,
2013-06-25 05:50:00,67.1,65.9,29.82,SW,225,3.0,8.0,96,0.13,,,0.49,VWS V14.01,2013-06-25 10:50:00,
2013-06-25 05:55:00,67.0,65.8,29.83,SW,225,6.0,13.0,96,0.13,,,0.50,VWS V14.01,2013-06-25 10:55:00,
2013-06-25 06:00:00,66.9,65.7,29.83,SW,225,5.0,13.0,96,0.13,,,0.52,VWS V14.01,2013-06-25 11:00:00,
2013-06-25 06:05:00,66.9,65.7,29.82,SW,225,3.0,9.0,96,0.13,,,0.53,VWS V14.01,2013-06-25 11:05:00,
2013-06-25 06:10:00,66.8,65.6,29.81,SSW,202,2.0,6.0,96,0.12,,,0.54,VWS V14.01,2013-06-25 11:10:00,
2013-06-25 06:15:00,66.7,65.5,29.81,SW,225,2.0,8.0,96,0.11,,,0.54,VWS V14.01,2013-06-25 11:15:00,
2013-06-25 06:20:00,66.7,65.5,29.80,SSW,202,5.0,13.0,96,0.12,,,0.56,VWS V14.01,2013-06-25 11:20:00,
2013-06-25 06:25:00,66.6,65.4,29.77,South,180,2.0,12.0,96,0.11,,,0.56,VWS V14.01,2013-06-25 11:25:00,
2013-06-25 06:30:00,66.6,65.4,29.76,SSW,202,1.0,6.0,96,0.11,,,0.57,VWS V14.01,2013-06-25 11:30:00,
2013-06-25 06:35:00,66.6,65.4,29.75,SSW,202,0.0,0.0,96,0.11,,,0.57,VWS V14.01,2013-06-25 11:35:00,
2013-06-25 06:40:00,66.6,65.4,29.76,South,180,1.0,8.0,96,0.10,,,0.57,VWS V14.01,2013-06-25 11:40:00,
2013-06-25 06:45:00,66.7,65.5,29.76,SSW,202,4.0,12.0,96,0.09,,FEW250,0.57,VWS V14.01,2013-06-25 11:45:00,
2013-06-25 06:52:00,66.7,65.5,29.76,SSW,202,4.0,12.0,96,0.09,,,0.57,VWS V14.01,2013-06-25 11:52:00,
2013-06-25 06:55:00,66.7,65.5,29.75,SSW,199,13.0,14.0,96,0.09,,FEW250,0.57,VWS V14.01,2013-06-25 11:55:00,
2013-06-25 06:57:00,66.7,65.5,29.74,South,180,6.0,14.0,96,0.07,,,0.57,VWS V14.01,2013-06-25 11:57:00,
2013-06-25 07:00:00,66.7,65.5,29.74,South,184,3.0,14.0,96,0.07,,FEW250,0.57,VWS V14.01,2013-06-25 12:00:00,
2013-06-25 07:02:00,66.7,65.5,29.74,SSW,197,7.0,14.0,96,0.05,,OVC150,0.57,VWS V14.01,2013-06-25 12:02:00,
2013-06-25 07:05:00,66.8,65.6,29.74,SSW,203,10.0,15.0,96,0.05,,FEW250,0.57,VWS V14.01,2013-06-25 12:05:00,
2013-06-25 07:07:00,66.9,65.7,29.74,North,360,11.0,14.0,96,0.04,,OVC150,0.57,VWS V14.01,2013-06-25 12:07:00,
2013-06-25 07:10:00,67.0,65.8,29.74,SSE,163,6.0,17.0,96,0.04,,FEW250,0.57,VWS V14.01,2013-06-25 12:10:00,
2013-06-25 07:12:00,67.0,65.8,29.73,South,179,3.0,17.0,96,0.03,,OVC150,0.57,VWS V14.01,2013-06-25 12:12:00,
2013-06-25 07:15:00,67.2,66.0,29.72,South,180,5.0,13.0,96,0.03,,FEW250,0.57,VWS V14.01,2013-06-25 12:15:00,
2013-06-25 07:18:00,67.3,66.1,29.72,South,184,14.0,16.0,96,0.03,,OVC150,0.57,VWS V14.01,2013-06-25 12:18:00,
2013-06-25 07:20:00,67.3,66.1,29.72,North,360,7.0,16.0,96,0.04,,FEW250,0.58,VWS V14.01,2013-06-25 12:20:00,
2013-06-25 07:23:00,67.4,66.2,29.73,South,190,1.0,16.0,96,0.02,,OVC150,0.58,VWS V14.01,2013-06-25 12:23:00,
2013-06-25 07:25:00,67.4,66.2,29.74,SW,226,2.0,13.0,96,0.02,,FEW250,0.58,VWS V14.01,2013-06-25 12:25:00,
2013-06-25 07:28:00,67.5,66.3,29.75,West,263,0.0,4.0,96,0.02,,OVC150,0.58,VWS V14.01,2013-06-25 12:28:00,
2013-06-25 07:30:00,67.6,66.4,29.75,WNW,302,0.0,4.0,96,0.02,,FEW250,0.58,VWS V14.01,2013-06-25 12:30:00,
2013-06-25 07:33:00,67.7,66.2,29.76,WNW,302,0.0,0.0,95,0.01,,OVC150,0.58,VWS V14.01,2013-06-25 12:33:00,
2013-06-25 07:35:00,67.7,66.2,29.76,WNW,302,0.0,0.0,95,0.01,,FEW250,0.58,VWS V14.01,2013-06-25 12:35:00,
2013-06-25 07:38:00,67.9,66.4,29.77,WNW,302,0.0,0.0,95,0.01,,OVC150,0.58,VWS V14.01,2013-06-25 12:38:00,
2013-06-25 07:40:00,68.0,66.5,29.77,WNW,302,0.0,0.0,95,0.01,,FEW250,0.58,VWS V14.01,2013-06-25 12:40:00,
2013-06-25 07:43:00,68.3,66.8,29.78,WNW,302,0.0,0.0,95,0.01,,OVC150,0.58,VWS V14.01,2013-06-25 12:43:00,
2013-06-25 07:45:00,68.4,66.9,29.78,WNW,302,0.0,0.0,95,0.01,,FEW250,0.58,VWS V14.01,2013-06-25 12:45:00,
2013-06-25 07:48:00,68.5,66.7,29.79,NW,309,0.0,5.0,94,0.01,,OVC150,0.58,VWS V14.01,2013-06-25 12:48:00,
2013-06-25 07:50:00,68.8,67.3,29.79,NW,318,0.0,5.0,95,0.01,,FEW250,0.58,VWS V14.01,2013-06-25 12:50:00,
2013-06-25 07:53:00,69.0,67.2,29.78,NNW,330,0.0,5.0,94,0.01,,OVC150,0.58,VWS V14.01,2013-06-25 12:53:00,
2013-06-25 07:55:00,69.1,67.3,29.78,NNW,333,0.0,5.0,94,0.01,,FEW250,0.58,VWS V14.01,2013-06-25 12:55:00,
2013-06-25 07:58:00,69.1,67.3,29.79,NNW,331,0.0,0.0,94,0.01,,OVC150,0.58,VWS V14.01,2013-06-25 12:58:00,
2013-06-25 08:00:00,69.2,67.4,29.80,NNW,331,0.0,0.0,94,0.01,,FEW250,0.58,VWS V14.01,2013-06-25 13:00:00,
2013-06-25 08:03:00,69.2,67.1,29.80,NW,319,0.0,0.0,93,0.01,,BKN200,0.58,VWS V14.01,2013-06-25 13:03:00,
2013-06-25 08:05:00,69.2,67.1,29.80,NW,319,2.0,3.0,93,0.01,,FEW250,0.58,VWS V14.01,2013-06-25 13:05:00,
2013-06-25 08:08:00,69.2,67.1,29.80,NW,319,0.0,3.0,93,0.01,,BKN200,0.58,VWS V14.01,2013-06-25 13:08:00,
2013-06-25 08:10:00,69.2,67.1,29.80,NW,319,0.0,0.0,93,0.01,,FEW250,0.58,VWS V14.01,2013-06-25 13:10:00,
2013-06-25 08:13:00,69.3,67.2,29.80,NW,318,0.0,0.0,93,0.01,,BKN200,0.58,VWS V14.01,2013-06-25 13:13:00,
2013-06-25 08:15:00,69.2,67.1,29.80,NW,318,0.0,0.0,93,0.01,,FEW250,0.58,VWS V14.01,2013-06-25 13:15:00,
2013-06-25 08:18:00,69.4,67.3,29.80,NW,318,0.0,0.0,93,0.01,,BKN200,0.58,VWS V14.01,2013-06-25 13:18:00,
2013-06-25 08:20:00,69.4,67.3,29.80,NW,318,0.0,0.0,93,0.01,,FEW250,0.58,VWS V14.01,2013-06-25 13:20:00,
2013-06-25 08:23:00,69.5,67.1,29.80,NW,318,0.0,0.0,92,0.00,,BKN200,0.58,VWS V14.01,2013-06-25 13:23:00,
2013-06-25 08:25:00,69.5,67.1,29.80,NW,318,0.0,0.0,92,0.00,,FEW250,0.58,VWS V14.01,2013-06-25 13:25:00,
2013-06-25 08:28:00,69.6,67.2,29.80,NW,318,0.0,0.0,92,0.00,,BKN200,0.58,VWS V14.01,2013-06-25 13:28:00,
2013-06-25 08:30:00,69.6,67.2,29.80,NW,318,0.0,0.0,92,0.00,,FEW250,0.58,VWS V14.01,2013-06-25 13:30:00,
2013-06-25 08:34:00,69.7,67.0,29.81,NW,318,0.0,0.0,91,0.00,,BKN200,0.58,VWS V14.01,2013-06-25 13:34:00,
2013-06-25 08:35:00,69.7,67.0,29.81,NW,318,0.0,0.0,91,0.00,,FEW250,0.58,VWS V14.01,2013-06-25 13:35:00,
2013-06-25 08:39:00,69.8,67.4,29.82,NW,318,0.0,0.0,92,0.00,,BKN200,0.58,VWS V14.01,2013-06-25 13:39:00,
2013-06-25 08:40:00,69.8,67.4,29.82,NW,318,0.0,0.0,92,0.00,,FEW250,0.58,VWS V14.01,2013-06-25 13:40:00,
2013-06-25 08:44:00,69.8,67.1,29.83,NW,319,0.0,0.0,91,0.00,,BKN200,0.58,VWS V14.01,2013-06-25 13:44:00,
2013-06-25 08:45:00,69.7,67.0,29.83,NW,319,0.0,0.0,91,0.00,,FEW250,0.58,VWS V14.01,2013-06-25 13:45:00,
2013-06-25 08:49:00,69.7,67.3,29.83,NW,316,0.0,1.0,92,0.00,,BKN200,0.58,VWS V14.01,2013-06-25 13:49:00,
2013-06-25 08:50:00,69.7,67.3,29.83,NW,316,0.0,1.0,92,0.00,,FEW250,0.58,VWS V14.01,2013-06-25 13:50:00,
2013-06-25 08:54:00,69.7,67.3,29.84,NW,316,0.0,0.0,92,0.00,,BKN200,0.58,VWS V14.01,2013-06-25 13:54:00,
2013-06-25 08:55:00,69.7,67.3,29.84,NW,316,0.0,0.0,92,0.00,,FEW250,0.58,VWS V14.01,2013-06-25 13:55:00,
2013-06-25 08:59:00,69.8,67.4,29.84,NW,315,0.0,0.0,92,0.00,,BKN200,0.58,VWS V14.01,2013-06-25 13:59:00,
2013-06-25 09:00:00,69.8,67.4,29.84,NW,315,0.0,0.0,92,0.00,,FEW250,0.58,VWS V14.01,2013-06-25 14:00:00,
2013-06-25 09:04:00,69.7,67.3,29.84,NW,309,0.0,5.0,92,0.00,,OVC075,0.58,VWS V14.01,2013-06-25 14:04:00,
2013-06-25 09:05:00,69.7,67.3,29.84,NW,309,0.0,5.0,92,0.00,,FEW250,0.58,VWS V14.01,2013-06-25 14:05:00,
2013-06-25 09:09:00,69.7,67.3,29.85,NW,309,3.0,3.0,92,0.01,,OVC075,0.59,VWS V14.01,2013-06-25 14:09:00,
2013-06-25 09:10:00,69.7,67.3,29.85,NW,309,4.0,4.0,92,0.01,,FEW250,0.59,VWS V14.01,2013-06-25 14:10:00,
2013-06-25 09:14:00,69.6,67.2,29.85,NW,309,0.0,5.0,92,0.02,,OVC075,0.60,VWS V14.01,2013-06-25 14:14:00,
2013-06-25 09:15:00,69.6,67.2,29.85,NW,309,0.0,4.0,92,0.02,,FEW250,0.60,VWS V14.01,2013-06-25 14:15:00,
2013-06-25 09:19:00,69.5,67.4,29.85,NW,309,0.0,0.0,93,0.03,,OVC075,0.61,VWS V14.01,2013-06-25 14:19:00,
2013-06-25 09:20:00,69.5,67.4,29.85,NW,309,0.0,0.0,93,0.03,,FEW250,0.61,VWS V14.01,2013-06-25 14:20:00,
2013-06-25 09:24:00,69.3,66.9,29.84,NW,309,0.0,5.0,92,0.04,,OVC075,0.62,VWS V14.01,2013-06-25 14:24:00,
2013-06-25 09:25:00,69.3,66.9,29.84,NW,309,0.0,5.0,92,0.04,,FEW250,0.62,VWS V14.01,2013-06-25 14:25:00,
2013-06-25 09:29:00,69.1,67.0,29.85,NW,307,0.0,3.0,93,0.04,,OVC075,0.62,VWS V14.01,2013-06-25 14:29:00,
2013-06-25 09:30:00,69.1,67.0,29.85,NW,307,0.0,3.0,93,0.04,,FEW250,0.62,VWS V14.01,2013-06-25 14:30:00,
2013-06-25 09:34:00,69.0,66.9,29.85,WSW,237,0.0,4.0,93,0.05,,,0.63,VWS V14.01,2013-06-25 14:34:00,
2013-06-25 09:35:00,69.0,66.9,29.85,WSW,237,0.0,4.0,93,0.05,,FEW250,0.63,VWS V14.01,2013-06-25 14:35:00,
2013-06-25 09:39:00,68.7,66.6,29.85,SW,234,2.0,6.0,93,0.07,,,0.65,VWS V14.01,2013-06-25 14:39:00,
2013-06-25 09:40:00,68.7,66.6,29.85,SW,234,2.0,6.0,93,0.07,,FEW250,0.65,VWS V14.01,2013-06-25 14:40:00,
2013-06-25 09:44:00,68.5,66.7,29.85,WSW,238,0.0,7.0,94,0.08,,,0.66,VWS V14.01,2013-06-25 14:44:00,
2013-06-25 09:45:00,68.5,66.7,29.85,WSW,238,0.0,7.0,94,0.08,,FEW250,0.66,VWS V14.01,2013-06-25 14:45:00,
2013-06-25 09:49:00,68.4,66.6,29.85,WSW,240,4.0,5.0,94,0.10,,,0.68,VWS V14.01,2013-06-25 14:49:00,
2013-06-25 09:50:00,68.4,66.6,29.85,WSW,240,4.0,5.0,94,0.10,,FEW250,0.68,VWS V14.01,2013-06-25 14:50:00,
2013-06-25 09:54:00,68.2,66.4,29.85,SW,221,0.0,3.0,94,0.11,,,0.69,VWS V14.01,2013-06-25 14:54:00,
2013-06-25 09:55:00,68.2,66.4,29.85,SW,221,0.0,3.0,94,0.11,,FEW250,0.69,VWS V14.01,2013-06-25 14:55:00,
2013-06-25 10:00:00,68.1,66.6,29.85,SW,221,0.0,0.0,95,0.11,,,0.69,VWS V14.01,2013-06-25 15:00:00,
2013-06-25 10:05:00,68.0,66.5,29.85,NNW,344,5.0,6.0,95,0.12,,,0.70,VWS V14.01,2013-06-25 15:05:00,
2013-06-25 10:10:00,67.9,66.4,29.84,NNE,32,0.0,7.0,95,0.12,,,0.72,VWS V14.01,2013-06-25 15:10:00,
2013-06-25 10:15:00,67.3,65.2,29.83,NE,50,5.0,7.0,93,0.12,,,0.72,VWS V14.01,2013-06-25 15:15:00,
2013-06-25 10:20:00,65.8,64.0,29.80,ENE,62,4.0,7.0,94,0.12,,,0.73,VWS V14.01,2013-06-25 15:20:00,
2013-06-25 10:25:00,64.8,63.0,29.78,NE,50,6.0,11.0,94,0.13,,,0.75,VWS V14.01,2013-06-25 15:25:00,
2013-06-25 10:30:00,63.1,61.3,29.72,NE,37,14.0,19.0,94,0.15,,,0.77,VWS V14.01,2013-06-25 15:30:00,
2013-06-25 10:35:00,62.8,61.7,29.72,NE,40,4.0,19.0,96,0.15,,,0.78,VWS V14.01,2013-06-25 15:35:00,
2013-06-25 10:40:00,62.5,61.3,29.74,NNE,13,0.0,13.0,96,0.13,,,0.78,VWS V14.01,2013-06-25 15:40:00,
2013-06-25 10:45:00,63.0,62.1,29.79,SW,215,5.0,15.0,97,0.13,,FEW250,0.78,VWS V14.01,2013-06-25 15:45:00,
2013-06-25 10:46:00,63.4,62.5,29.81,South,191,6.0,15.0,97,0.12,,,0.78,VWS V14.01,2013-06-25 15:46:00,
2013-06-25 10:50:00,65.0,64.4,29.80,South,190,2.0,12.0,98,0.12,,FEW250,0.78,VWS V14.01,2013-06-25 15:50:00,
2013-06-25 10:51:00,65.2,64.6,29.80,South,188,2.0,10.0,98,0.10,,,0.78,VWS V14.01,2013-06-25 15:51:00,
2013-06-25 10:55:00,65.9,65.3,29.80,South,178,4.0,6.0,98,0.10,,FEW250,0.78,VWS V14.01,2013-06-25 15:55:00,
2013-06-25 10:56:00,66.0,65.4,29.80,South,178,5.0,6.0,98,0.09,,,0.78,VWS V14.01,2013-06-25 15:56:00,
2013-06-25 11:00:00,66.5,65.9,29.80,North,360,11.0,11.0,98,0.09,,FEW250,0.78,VWS V14.01,2013-06-25 16:00:00,
2013-06-25 11:01:00,66.6,66.0,29.80,South,186,1.0,11.0,98,0.09,,-RA,0.78,VWS V14.01,2013-06-25 16:01:00,
2013-06-25 11:05:00,66.9,66.3,29.79,South,186,0.0,6.0,98,0.09,,FEW250,0.78,VWS V14.01,2013-06-25 16:05:00,
2013-06-25 11:06:00,67.0,66.4,29.79,South,169,0.0,5.0,98,0.08,,-RA,0.78,VWS V14.01,2013-06-25 16:06:00,
2013-06-25 11:10:00,67.0,66.1,29.80,SSE,167,0.0,2.0,97,0.08,,FEW250,0.78,VWS V14.01,2013-06-25 16:10:00,
2013-06-25 11:11:00,67.0,66.1,29.79,SSE,147,0.0,0.0,97,0.07,,-RA,0.78,VWS V14.01,2013-06-25 16:11:00,
2013-06-25 11:15:00,66.8,65.9,29.77,ESE,121,4.0,8.0,97,0.07,,CLR,0.78,VWS V14.01,2013-06-25 16:15:00,
2013-06-25 11:16:00,66.3,65.1,29.77,ESE,112,9.0,11.0,96,0.06,,-RA,0.78,VWS V14.01,2013-06-25 16:16:00,
2013-06-25 11:20:00,64.9,63.7,29.77,South,170,0.0,11.0,96,0.06,,FEW250,0.78,VWS V14.01,2013-06-25 16:20:00,
2013-06-25 11:21:00,64.8,63.6,29.78,SE,139,0.0,4.0,96,0.05,,-RA,0.78,VWS V14.01,2013-06-25 16:21:00,
2013-06-25 11:25:00,64.7,63.8,29.78,SE,144,0.0,4.0,97,0.05,,FEW250,0.78,VWS V14.01,2013-06-25 16:25:00,
2013-06-25 11:26:00,64.8,63.9,29.78,South,184,1.0,4.0,97,0.04,,-RA,0.78,VWS V14.01,2013-06-25 16:26:00,
2013-06-25 11:30:00,64.8,63.9,29.78,SSE,153,0.0,4.0,97,0.04,,FEW250,0.78,VWS V14.01,2013-06-25 16:30:00,
2013-06-25 11:31:00,65.0,64.1,29.77,South,170,0.0,4.0,97,0.02,,-RA,0.78,VWS V14.01,2013-06-25 16:31:00,
2013-06-25 11:35:00,65.8,64.9,29.77,SSW,200,7.0,9.0,97,0.02,,FEW250,0.78,VWS V14.01,2013-06-25 16:35:00,
2013-06-25 11:36:00,66.3,65.7,29.78,North,360,7.0,11.0,98,0.00,,-RA,0.78,VWS V14.01,2013-06-25 16:36:00,
2013-06-25 11:40:00,67.1,66.5,29.79,SSW,192,7.0,12.0,98,0.00,,FEW250,0.78,VWS V14.01,2013-06-25 16:40:00,
2013-06-25 11:41:00,67.5,66.9,29.80,South,182,0.0,12.0,98,0.00,,-RA,0.78,VWS V14.01,2013-06-25 16:41:00,
2013-06-25 11:45:00,67.8,67.2,29.80,SSW,194,5.0,12.0,98,0.00,,FEW250,0.78,VWS V14.01,2013-06-25 16:45:00,
2013-06-25 11:47:00,68.1,67.5,29.80,SW,224,7.0,12.0,98,0.00,,-RA,0.78,VWS V14.01,2013-06-25 16:47:00,
2013-06-25 11:50:00,68.5,67.9,29.80,South,187,6.0,11.0,98,0.00,,FEW250,0.78,VWS V14.01,2013-06-25 16:50:00,
2013-06-25 11:52:00,68.8,67.9,29.80,South,188,2.0,8.0,97,0.00,,-RA,0.78,VWS V14.01,2013-06-25 16:52:00,
2013-06-25 11:55:00,69.1,68.2,29.80,SSW,212,8.0,11.0,97,0.00,,FEW250,0.78,VWS V14.01,2013-06-25 16:55:00,
2013-06-25 11:57:00,69.2,68.3,29.79,SSE,148,0.0,14.0,97,0.00,,-RA,0.78,VWS V14.01,2013-06-25 16:57:00,
2013-06-25 12:00:00,69.4,67.9,29.79,SSW,207,9.0,15.0,95,0.00,,FEW250,0.78,VWS V14.01,2013-06-25 17:00:00,
2013-06-25 12:02:00,69.7,68.2,29.79,SSW,202,3.0,15.0,95,0.00,,OVC190,0.78,VWS V14.01,2013-06-25 17:02:00,
2013-06-25 12:05:00,70.1,68.6,29.79,WSW,248,5.0,10.0,95,0.00,,FEW250,0.78,VWS V14.01,2013-06-25 17:05:00,
2013-06-25 12:07:00,70.3,68.8,29.79,South,177,1.0,11.0,95,0.00,,OVC190,0.78,VWS V14.01,2013-06-25 17:07:00,
2013-06-25 12:10:00,70.7,68.9,29.79,SSW,199,1.0,6.0,94,0.00,,FEW250,0.78,VWS V14.01,2013-06-25 17:10:00,
2013-06-25 12:12:00,70.8,69.0,29.79,SW,229,3.0,7.0,94,0.00,,OVC190,0.78,VWS V14.01,2013-06-25 17:12:00,
2013-06-25 12:15:00,71.1,69.0,29.79,SSW,196,6.0,7.0,93,0.00,,FEW250,0.78,VWS V14.01,2013-06-25 17:15:00,
2013-06-25 12:17:00,71.4,69.3,29.79,North,360,9.0,13.0,93,0.00,,OVC190,0.78,VWS V14.01,2013-06-25 17:17:00,
2013-06-25 12:20:00,71.5,69.1,29.79,SW,231,5.0,13.0,92,0.00,,FEW250,0.78,VWS V14.01,2013-06-25 17:20:00,
2013-06-25 12:22:00,71.7,68.9,29.79,WSW,256,4.0,7.0,91,0.00,,OVC190,0.78,VWS V14.01,2013-06-25 17:22:00,
2013-06-25 12:25:00,71.9,69.1,29.79,SSW,207,0.0,7.0,91,0.00,,FEW250,0.78,VWS V14.01,2013-06-25 17:25:00,
2013-06-25 12:27:00,72.3,69.5,29.80,SW,227,7.0,9.0,91,0.00,,OVC190,0.78,VWS V14.01,2013-06-25 17:27:00,
2013-06-25 12:30:00,72.3,68.9,29.80,WSW,257,4.0,12.0,89,0.00,,FEW250,0.78,VWS V14.01,2013-06-25 17:30:00,
2013-06-25 12:32:00,72.6,69.2,29.80,SW,218,0.0,12.0,89,0.00,,FEW005,0.78,VWS V14.01,2013-06-25 17:32:00,
2013-06-25 12:35:00,72.9,69.8,29.80,SSW,201,2.0,6.0,90,0.00,,FEW250,0.78,VWS V14.01,2013-06-25 17:35:00,
2013-06-25 12:37:00,73.1,69.3,29.80,SSW,195,0.0,7.0,88,0.00,,FEW005,0.78,VWS V14.01,2013-06-25 17:37:00,
2013-06-25 12:40:00,73.3,69.5,29.80,North,360,3.0,7.0,88,0.00,,FEW250,0.78,VWS V14.01,2013-06-25 17:40:00,
2013-06-25 12:42:00,73.3,68.9,29.80,SSW,196,6.0,11.0,86,0.00,,FEW005,0.78,VWS V14.01,2013-06-25 17:42:00,
2013-06-25 12:45:00,73.3,69.2,29.80,SSW,207,0.0,11.0,87,0.00,,FEW250,0.78,VWS V14.01,2013-06-25 17:45:00,
2013-06-25 12:47:00,73.5,69.4,29.80,South,190,7.0,9.0,87,0.00,,FEW005,0.78,VWS V14.01,2013-06-25 17:47:00,
2013-06-25 12:50:00,73.4,68.6,29.80,SSW,200,3.0,9.0,85,0.00,,FEW250,0.78,VWS V14.01,2013-06-25 17:50:00,
2013-06-25 12:52:00,73.6,69.2,29.79,South,178,4.0,8.0,86,0.00,,FEW005,0.78,VWS V14.01,2013-06-25 17:52:00,
2013-06-25 12:55:00,73.7,69.3,29.79,SSW,203,11.0,12.0,86,0.00,,FEW250,0.78,VWS V14.01,2013-06-25 17:55:00,
2013-06-25 12:58:00,73.6,68.8,29.79,SW,221,11.0,12.0,85,0.00,,FEW005,0.78,VWS V14.01,2013-06-25 17:58:00,
2013-06-25 13:00:00,73.7,68.9,29.79,WSW,240,2.0,12.0,85,0.00,,FEW250,0.78,VWS V14.01,2013-06-25 18:00:00,
2013-06-25 13:03:00,74.0,69.2,29.78,SW,215,7.0,10.0,85,0.00,,OVC200,0.78,VWS V14.01,2013-06-25 18:03:00,
2013-06-25 13:05:00,74.0,68.9,29.78,SSW,209,4.0,10.0,84,0.00,,FEW250,0.78,VWS V14.01,2013-06-25 18:05:00,
2013-06-25 13:08:00,74.2,69.4,29.78,SW,232,2.0,11.0,85,0.00,,OVC200,0.78,VWS V14.01,2013-06-25 18:08:00,
2013-06-25 13:10:00,74.4,69.2,29.78,South,184,0.0,11.0,84,0.00,,FEW250,0.78,VWS V14.01,2013-06-25 18:10:00,
2013-06-25 13:13:00,74.8,69.7,29.78,SW,230,4.0,9.0,84,0.00,,OVC200,0.78,VWS V14.01,2013-06-25 18:13:00,
2013-06-25 13:15:00,74.9,69.7,29.78,SW,221,1.0,10.0,84,0.00,,FEW250,0.78,VWS V14.01,2013-06-25 18:15:00,
2013-06-25 13:18:00,75.3,69.8,29.77,SSW,212,0.0,11.0,83,0.00,,OVC200,0.78,VWS V14.01,2013-06-25 18:18:00,
2013-06-25 13:20:00,75.5,70.0,29.77,SSW,209,1.0,11.0,83,0.00,,FEW250,0.78,VWS V14.01,2013-06-25 18:20:00,
2013-06-25 13:23:00,75.6,69.4,29.77,SW,219,3.0,9.0,81,0.00,,OVC200,0.78,VWS V14.01,2013-06-25 18:23:00,
2013-06-25 13:25:00,75.7,69.8,29.77,SSW,198,6.0,9.0,82,0.00,,FEW250,0.78,VWS V14.01,2013-06-25 18:25:00,
2013-06-25 13:28:00,75.9,70.0,29.77,SSW,204,0.0,9.0,82,0.00,,OVC200,0.78,VWS V14.01,2013-06-25 18:28:00,
2013-06-25 13:30:00,76.0,70.1,29.78,SW,234,5.0,9.0,82,0.00,,FEW250,0.78,VWS V14.01,2013-06-25 18:30:00,
2013-06-25 13:33:00,76.4,70.1,29.78,WSW,248,4.0,9.0,81,0.00,,OVC200,0.78,VWS V14.01,2013-06-25 18:33:00,
2013-06-25 13:35:00,76.6,70.3,29.78,SW,226,0.0,9.0,81,0.00,,FEW250,0.78,VWS V14.01,2013-06-25 18:35:00,
2013-06-25 13:38:00,77.3,70.7,29.78,WSW,255,3.0,11.0,80,0.00,,OVC200,0.78,VWS V14.01,2013-06-25 18:38:00,
2013-06-25 13:40:00,77.4,70.4,29.78,SW,224,1.0,11.0,79,0.00,,FEW250,0.78,VWS V14.01,2013-06-25 18:40:00,
2013-06-25 13:43:00,77.5,70.1,29.78,WSW,249,10.0,10.0,78,0.00,,OVC200,0.78,VWS V14.01,2013-06-25 18:43:00,
2013-06-25 13:45:00,77.5,70.5,29.78,SW,235,3.0,10.0,79,0.00,,FEW250,0.78,VWS V14.01,2013-06-25 18:45:00,
2013-06-25 13:48:00,77.8,70.8,29.78,WSW,245,4.0,9.0,79,0.00,,OVC200,0.78,VWS V14.01,2013-06-25 18:48:00,
2013-06-25 13:50:00,77.9,70.9,29.78,South,182,4.0,9.0,79,0.00,,FEW250,0.78,VWS V14.01,2013-06-25 18:50:00,
2013-06-25 13:53:00,78.3,70.9,29.78,SSW,209,3.0,6.0,78,0.00,,OVC200,0.78,VWS V14.01,2013-06-25 18:53:00,
2013-06-25 13:55:00,78.4,71.0,29.78,WSW,240,8.0,9.0,78,0.00,,FEW250,0.78,VWS V14.01,2013-06-25 18:55:00,
2013-06-25 13:58:00,78.6,70.8,29.78,SSW,213,2.0,9.0,77,0.00,,OVC200,0.78,VWS V14.01,2013-06-25 18:58:00,
2013-06-25 14:00:00,78.7,70.9,29.78,SW,219,0.0,8.0,77,0.00,,FEW250,0.78,VWS V14.01,2013-06-25 19:00:00,
2013-06-25 14:04:00,78.9,70.7,29.78,WSW,248,3.0,8.0,76,0.00,,BKN250,0.78,VWS V14.01,2013-06-25 19:04:00,
2013-06-25 14:05:00,78.9,70.7,29.78,WSW,237,0.0,8.0,76,0.00,,FEW250,0.78,VWS V14.01,2013-06-25 19:05:00,
2013-06-25 14:09:00,79.0,70.8,29.78,SW,221,1.0,8.0,76,0.00,,BKN250,0.78,VWS V14.01,2013-06-25 19:09:00,
2013-06-25 14:10:00,79.1,70.9,29.78,SSW,211,0.0,8.0,76,0.00,,FEW250,0.78,VWS V14.01,2013-06-25 19:10:00,
2013-06-25 14:14:00,78.8,70.2,29.78,SSW,202,6.0,11.0,75,0.00,,BKN250,0.78,VWS V14.01,2013-06-25 19:14:00,
2013-06-25 14:15:00,78.7,70.5,29.78,SSW,213,2.0,11.0,76,0.00,,FEW250,0.78,VWS V14.01,2013-06-25 19:15:00,
2013-06-25 14:19:00,78.4,70.2,29.77,SSW,193,9.0,12.0,76,0.00,,BKN250,0.78,VWS V14.01,2013-06-25 19:19:00,
2013-06-25 14:20:00,78.4,70.2,29.77,SE,145,3.0,12.0,76,0.00,,FEW250,0.78,VWS V14.01,2013-06-25 19:20:00,
2013-06-25 14:24:00,78.7,70.1,29.78,WSW,240,0.0,7.0,75,0.00,,BKN250,0.78,VWS V14.01,2013-06-25 19:24:00,
2013-06-25 14:25:00,78.7,70.1,29.78,West,268,4.0,7.0,75,0.00,,FEW250,0.78,VWS V14.01,2013-06-25 19:25:00,
2013-06-25 14:29:00,78.9,69.9,29.78,WSW,252,3.0,11.0,74,0.00,,BKN250,0.78,VWS V14.01,2013-06-25 19:29:00,
2013-06-25 14:30:00,78.9,69.9,29.78,West,275,5.0,11.0,74,0.00,,FEW250,0.78,VWS V14.01,2013-06-25 19:30:00,
2013-06-25 14:34:00,78.6,69.2,29.78,West,262,6.0,12.0,73,0.00,,BKN250,0.78,VWS V14.01,2013-06-25 19:34:00,
2013-06-25 14:35:00,78.6,69.2,29.78,SW,232,9.0,12.0,73,0.00,,FEW250,0.78,VWS V14.01,2013-06-25 19:35:00,
2013-06-25 14:39:00,78.6,69.6,29.78,WSW,251,4.0,11.0,74,0.00,,BKN250,0.78,VWS V14.01,2013-06-25 19:39:00,
2013-06-25 14:40:00,78.7,69.7,29.78,West,259,10.0,11.0,74,0.00,,FEW250,0.78,VWS V14.01,2013-06-25 19:40:00,
2013-06-25 14:44:00,79.2,70.6,29.78,WSW,244,3.0,8.0,75,0.00,,BKN250,0.78,VWS V14.01,2013-06-25 19:44:00,
2013-06-25 14:45:00,79.2,70.6,29.78,SSW,207,5.0,8.0,75,0.00,,FEW250,0.78,VWS V14.01,2013-06-25 19:45:00,
2013-06-25 14:49:00,79.6,70.6,29.78,SSW,194,2.0,8.0,74,0.00,,BKN250,0.78,VWS V14.01,2013-06-25 19:49:00,
2013-06-25 14:50:00,79.6,70.6,29.78,SSW,198,0.0,8.0,74,0.00,,FEW250,0.78,VWS V14.01,2013-06-25 19:50:00,
2013-06-25 14:54:00,80.5,71.1,29.77,WNW,290,6.0,6.0,73,0.00,,BKN250,0.78,VWS V14.01,2013-06-25 19:54:00,
2013-06-25 14:55:00,80.5,71.1,29.77,WNW,297,5.0,6.0,73,0.00,,FEW250,0.78,VWS V14.01,2013-06-25 19:55:00,
2013-06-25 14:59:00,80.9,71.0,29.77,West,261,4.0,9.0,72,0.00,,BKN250,0.78,VWS V14.01,2013-06-25 19:59:00,
2013-06-25 15:00:00,80.9,71.0,29.77,West,273,5.0,9.0,72,0.00,,FEW250,0.78,VWS V14.01,2013-06-25 20:00:00,
2013-06-25 15:04:00,81.4,71.1,29.77,West,275,3.0,9.0,71,0.00,,BKN250,0.78,VWS V14.01,2013-06-25 20:04:00,
2013-06-25 15:05:00,81.4,71.1,29.77,West,275,3.0,9.0,71,0.00,,FEW250,0.78,VWS V14.01,2013-06-25 20:05:00,
2013-06-25 15:09:00,81.4,70.3,29.77,West,263,1.0,7.0,69,0.00,,BKN250,0.78,VWS V14.01,2013-06-25 20:09:00,
2013-06-25 15:10:00,81.4,70.3,29.77,West,263,1.0,7.0,69,0.00,,FEW250,0.78,VWS V14.01,2013-06-25 20:10:00,
2013-06-25 15:14:00,81.8,70.6,29.78,NNW,331,0.0,4.0,69,0.00,,BKN250,0.78,VWS V14.01,2013-06-25 20:14:00,
2013-06-25 15:15:00,81.8,70.6,29.78,NNW,331,0.0,4.0,69,0.00,,FEW250,0.78,VWS V14.01,2013-06-25 20:15:00,
2013-06-25 15:19:00,82.5,70.4,29.78,East,97,0.0,2.0,67,0.00,,BKN250,0.78,VWS V14.01,2013-06-25 20:19:00,
2013-06-25 15:20:00,82.5,70.4,29.78,East,97,0.0,2.0,67,0.00,,FEW250,0.78,VWS V14.01,2013-06-25 20:20:00,
2013-06-25 15:24:00,78.5,67.9,29.77,ENE,71,0.0,6.0,70,0.00,,BKN250,0.78,VWS V14.01,2013-06-25 20:24:00,
2013-06-25 15:25:00,78.5,67.9,29.77,ENE,71,0.0,6.0,70,0.00,,FEW250,0.78,VWS V14.01,2013-06-25 20:25:00,
2013-06-25 15:29:00,75.6,67.5,29.77,ENE,73,3.0,5.0,76,0.00,,BKN250,0.78,VWS V14.01,2013-06-25 20:29:00,
2013-06-25 15:30:00,75.6,67.5,29.77,ENE,73,3.0,5.0,76,0.00,,FEW250,0.78,VWS V14.01,2013-06-25 20:30:00,
2013-06-25 15:34:00,73.5,66.2,29.77,East,94,0.0,6.0,78,0.00,,BKN250,0.78,VWS V14.01,2013-06-25 20:34:00,
2013-06-25 15:35:00,73.5,66.2,29.77,East,94,0.0,6.0,78,0.00,,FEW250,0.78,VWS V14.01,2013-06-25 20:35:00,
2013-06-25 15:39:00,71.2,65.4,29.77,ENE,70,5.0,6.0,82,0.00,,BKN250,0.78,VWS V14.01,2013-06-25 20:39:00,
2013-06-25 15:40:00,71.2,65.4,29.77,ENE,70,5.0,6.0,82,0.00,,FEW250,0.78,VWS V14.01,2013-06-25 20:40:00,
2013-06-25 15:45:00,70.4,65.7,29.76,ENE,77,0.0,5.0,85,0.00,,BKN250,0.78,VWS V14.01,2013-06-25 20:45:00,
2013-06-25 15:50:00,69.4,64.7,29.77,NE,51,6.0,9.0,85,0.00,,BKN250,0.78,VWS V14.01,2013-06-25 20:50:00,
2013-06-25 15:55:00,68.0,64.3,29.77,ENE,70,7.0,10.0,88,0.00,,BKN250,0.78,VWS V14.01,2013-06-25 20:55:00,
2013-06-25 16:00:00,67.3,64.0,29.76,ENE,65,8.0,9.0,89,0.00,,BKN250,0.78,VWS V14.01,2013-06-25 21:00:00,
2013-06-25 16:05:00,66.8,63.1,29.77,ENE,78,5.0,8.0,88,0.00,,BKN240,0.78,VWS V14.01,2013-06-25 21:05:00,
2013-06-25 16:10:00,66.2,62.9,29.77,East,82,8.0,9.0,89,0.00,,FEW250,0.78,VWS V14.01,2013-06-25 21:10:00,
2013-06-25 16:11:00,65.9,62.6,29.77,East,81,7.0,9.0,89,0.00,,BKN240,0.78,VWS V14.01,2013-06-25 21:11:00,
2013-06-25 16:15:00,64.9,61.6,29.77,NE,54,5.0,9.0,89,0.00,,FEW250,0.78,VWS V14.01,2013-06-25 21:15:00,
2013-06-25 16:16:00,64.8,61.8,29.77,East,79,5.0,9.0,90,0.00,,BKN240,0.78,VWS V14.01,2013-06-25 21:16:00,
2013-06-25 16:20:00,64.5,61.8,29.77,ENE,77,7.0,8.0,91,0.00,,FEW250,0.78,VWS V14.01,2013-06-25 21:20:00,
2013-06-25 16:21:00,64.7,62.3,29.77,East,92,6.0,8.0,92,0.00,,BKN240,0.78,VWS V14.01,2013-06-25 21:21:00,
2013-06-25 16:25:00,65.1,62.7,29.76,ENE,76,3.0,8.0,92,0.00,,FEW250,0.78,VWS V14.01,2013-06-25 21:25:00,
2013-06-25 16:26:00,65.3,62.9,29.76,East,80,5.0,8.0,92,0.00,,BKN240,0.78,VWS V14.01,2013-06-25 21:26:00,
2013-06-25 16:30:00,65.6,62.9,29.76,ESE,109,4.0,9.0,91,0.00,,FEW250,0.78,VWS V14.01,2013-06-25 21:30:00,
2013-06-25 16:31:00,65.9,63.5,29.76,East,89,7.0,9.0,92,0.00,,BKN240,0.78,VWS V14.01,2013-06-25 21:31:00,
2013-06-25 16:35:00,66.1,63.1,29.76,East,92,0.0,9.0,90,0.00,,FEW250,0.78,VWS V14.01,2013-06-25 21:35:00,
2013-06-25 16:37:00,65.9,62.9,29.76,East,95,6.0,9.0,90,0.00,,BKN240,0.78,VWS V14.01,2013-06-25 21:37:00,
2013-06-25 16:40:00,66.1,63.1,29.76,ESE,109,0.0,9.0,90,0.00,,FEW250,0.78,VWS V14.01,2013-06-25 21:40:00,
2013-06-25 16:42:00,66.5,63.5,29.76,ESE,113,4.0,8.0,90,0.00,,BKN240,0.78,VWS V14.01,2013-06-25 21:42:00,
2013-06-25 16:45:00,66.6,63.3,29.76,ESE,102,0.0,8.0,89,0.00,,FEW250,0.78,VWS V14.01,2013-06-25 21:45:00,
2013-06-25 16:47:00,66.7,63.4,29.76,ESE,121,4.0,7.0,89,0.00,,BKN240,0.78,VWS V14.01,2013-06-25 21:47:00,
2013-06-25 16:50:00,66.7,63.4,29.76,ESE,115,0.0,7.0,89,0.00,,FEW250,0.78,VWS V14.01,2013-06-25 21:50:00,
2013-06-25 16:52:00,66.5,62.8,29.75,ESE,107,0.0,6.0,88,0.00,,BKN240,0.78,VWS V14.01,2013-06-25 21:52:00,
2013-06-25 16:55:00,66.2,62.5,29.75,East,96,0.0,7.0,88,0.00,,FEW250,0.78,VWS V14.01,2013-06-25 21:55:00,
2013-06-25 16:57:00,65.8,62.5,29.76,ESE,104,0.0,7.0,89,0.00,,BKN240,0.78,VWS V14.01,2013-06-25 21:57:00,
2013-06-25 17:00:00,65.6,62.3,29.76,ENE,75,0.0,5.0,89,0.00,,FEW250,0.78,VWS V14.01,2013-06-25 22:00:00,
2013-06-25 17:02:00,65.2,61.9,29.76,East,80,5.0,5.0,89,0.00,,BKN140,0.78,VWS V14.01,2013-06-25 22:02:00,
2013-06-25 17:05:00,65.0,62.0,29.76,East,81,0.0,5.0,90,0.00,,FEW250,0.78,VWS V14.01,2013-06-25 22:05:00,
2013-06-25 17:08:00,65.0,62.3,29.75,ENE,72,0.0,3.0,91,0.00,,BKN140,0.78,VWS V14.01,2013-06-25 22:08:00,
2013-06-25 17:10:00,64.9,62.2,29.75,ESE,118,0.0,3.0,91,0.00,,FEW250,0.78,VWS V14.01,2013-06-25 22:10:00,
2013-06-25 17:13:00,65.0,62.3,29.75,East,93,0.0,2.0,91,0.00,,BKN140,0.78,VWS V14.01,2013-06-25 22:13:00,
2013-06-25 17:15:00,65.1,62.4,29.75,East,93,0.0,3.0,91,0.00,,FEW250,0.78,VWS V14.01,2013-06-25 22:15:00,
2013-06-25 17:18:00,65.4,63.0,29.75,ENE,78,0.0,4.0,92,0.00,,BKN140,0.78,VWS V14.01,2013-06-25 22:18:00,
2013-06-25 17:20:00,65.3,62.3,29.75,East,85,0.0,6.0,90,0.00,,FEW250,0.78,VWS V14.01,2013-06-25 22:20:00,
2013-06-25 17:23:00,65.0,62.3,29.75,East,86,0.0,6.0,91,0.00,,BKN140,0.78,VWS V14.01,2013-06-25 22:23:00,
2013-06-25 17:25:00,65.0,62.3,29.75,ENE,68,0.0,5.0,91,0.00,,FEW250,0.78,VWS V14.01,2013-06-25 22:25:00,
2013-06-25 17:28:00,64.9,62.2,29.75,ENE,66,0.0,5.0,91,0.00,,BKN140,0.78,VWS V14.01,2013-06-25 22:28:00,
2013-06-25 17:30:00,64.8,62.1,29.75,NE,54,0.0,5.0,91,0.00,,FEW250,0.78,VWS V14.01,2013-06-25 22:30:00,
2013-06-25 17:33:00,64.5,61.8,29.75,NE,53,0.0,4.0,91,0.00,,BKN140,0.78,VWS V14.01,2013-06-25 22:33:00,
2013-06-25 17:35:00,64.4,61.7,29.75,ENE,78,0.0,4.0,91,0.00,,FEW250,0.78,VWS V14.01,2013-06-25 22:35:00,
2013-06-25 17:38:00,64.2,61.8,29.76,ENE,78,0.0,0.0,92,0.00,,BKN140,0.78,VWS V14.01,2013-06-25 22:38:00,
2013-06-25 17:40:00,64.1,61.7,29.75,ENE,78,0.0,0.0,92,0.00,,FEW250,0.78,VWS V14.01,2013-06-25 22:40:00,
2013-06-25 17:43:00,64.1,61.7,29.75,ENE,78,0.0,0.0,92,0.00,,BKN140,0.78,VWS V14.01,2013-06-25 22:43:00,
2013-06-25 17:45:00,64.1,61.7,29.75,ENE,78,0.0,0.0,92,0.00,,FEW250,0.78,VWS V14.01,2013-06-25 22:45:00,
2013-06-25 17:48:00,64.0,61.6,29.75,ENE,65,0.0,0.0,92,0.00,,BKN140,0.78,VWS V14.01,2013-06-25 22:48:00,
2013-06-25 17:50:00,64.1,62.0,29.75,ENE,61,0.0,0.0,93,0.00,,FEW250,0.78,VWS V14.01,2013-06-25 22:50:00,
2013-06-25 17:53:00,64.2,62.1,29.75,ENE,57,0.0,1.0,93,0.00,,BKN140,0.78,VWS V14.01,2013-06-25 22:53:00,
2013-06-25 17:55:00,64.2,62.1,29.75,ENE,58,0.0,1.0,93,0.00,,FEW250,0.78,VWS V14.01,2013-06-25 22:55:00,
2013-06-25 17:58:00,64.2,62.1,29.75,ENE,58,0.0,0.0,93,0.00,,BKN140,0.78,VWS V14.01,2013-06-25 22:58:00,
2013-06-25 18:00:00,64.2,62.1,29.75,ENE,61,0.0,0.0,93,0.00,,CLR,0.78,VWS V14.01,2013-06-25 23:00:00,
2013-06-25 18:03:00,64.0,61.6,29.75,NE,45,0.0,5.0,92,0.00,,BKN180,0.78,VWS V14.01,2013-06-25 23:03:00,
2013-06-25 18:05:00,64.0,61.6,29.75,NE,44,0.0,5.0,92,0.00,,FEW250,0.78,VWS V14.01,2013-06-25 23:05:00,
2013-06-25 18:08:00,63.7,61.3,29.75,NE,41,0.0,5.0,92,0.00,,BKN180,0.78,VWS V14.01,2013-06-25 23:08:00,
2013-06-25 18:10:00,63.6,61.2,29.75,NE,41,0.0,5.0,92,0.00,,FEW250,0.78,VWS V14.01,2013-06-25 23:10:00,
2013-06-25 18:13:00,63.4,61.3,29.76,NE,43,0.0,1.0,93,0.00,,BKN180,0.78,VWS V14.01,2013-06-25 23:13:00,
2013-06-25 18:15:00,63.4,61.3,29.76,NE,44,0.0,1.0,93,0.00,,CLR,0.78,VWS V14.01,2013-06-25 23:15:00,
2013-06-25 18:18:00,63.4,61.3,29.76,NE,43,0.0,0.0,93,0.00,,BKN180,0.78,VWS V14.01,2013-06-25 23:18:00,
2013-06-25 18:20:00,63.4,61.7,29.76,NE,43,0.0,0.0,94,0.00,,FEW250,0.78,VWS V14.01,2013-06-25 23:20:00,
2013-06-25 18:24:00,63.5,61.8,29.76,ENE,57,4.0,4.0,94,0.00,,BKN180,0.78,VWS V14.01,2013-06-25 23:24:00,
2013-06-25 18:25:00,63.4,61.7,29.76,NE,48,0.0,5.0,94,0.00,,CLR,0.78,VWS V14.01,2013-06-25 23:25:00,
2013-06-25 18:29:00,63.4,61.3,29.76,NE,44,0.0,3.0,93,0.00,,BKN180,0.78,VWS V14.01,2013-06-25 23:29:00,
2013-06-25 18:30:00,63.4,61.7,29.76,NE,40,0.0,3.0,94,0.00,,FEW250,0.78,VWS V14.01,2013-06-25 23:30:00,
2013-06-25 18:34:00,63.6,61.8,29.76,NE,34,0.0,5.0,94,0.00,,BKN180,0.78,VWS V14.01,2013-06-25 23:34:00,
2013-06-25 18:35:00,63.7,61.9,29.76,NE,34,0.0,5.0,94,0.00,,FEW250,0.78,VWS V14.01,2013-06-25 23:35:00,
2013-06-25 18:39:00,64.0,62.2,29.76,NE,38,0.0,0.0,94,0.00,,BKN180,0.78,VWS V14.01,2013-06-25 23:39:00,
2013-06-25 18:40:00,64.0,62.2,29.76,ENE,62,4.0,4.0,94,0.00,,FEW250,0.78,VWS V14.01,2013-06-25 23:40:00,
2013-06-25 18:44:00,63.9,61.8,29.77,NE,44,0.0,5.0,93,0.00,,BKN180,0.78,VWS V14.01,2013-06-25 23:44:00,
2013-06-25 18:45:00,64.0,61.9,29.77,NE,45,0.0,5.0,93,0.00,,FEW250,0.78,VWS V14.01,2013-06-25 23:45:00,
2013-06-25 18:49:00,63.8,61.7,29.76,NE,44,0.0,0.0,93,0.00,,BKN180,0.78,VWS V14.01,2013-06-25 23:49:00,
2013-06-25 18:50:00,63.9,61.8,29.76,NE,38,0.0,0.0,93,0.00,,FEW250,0.78,VWS V14.01,2013-06-25 23:50:00,
2013-06-25 18:54:00,63.7,61.6,29.76,NE,55,0.0,2.0,93,0.00,,BKN180,0.78,VWS V14.01,2013-06-25 23:54:00,
2013-06-25 18:55:00,63.7,61.6,29.76,NE,55,0.0,2.0,93,0.00,,FEW250,0.78,VWS V14.01,2013-06-25 23:55:00,
2013-06-25 18:59:00,63.6,61.2,29.76,NE,56,0.0,0.0,92,0.00,,BKN180,0.78,VWS V14.01,2013-06-25 23:59:00,
2013-06-25 19:00:00,63.5,61.1,29.76,NE,56,0.0,0.0,92,0.00,,FEW250,0.78,VWS V14.01,2013-06-26 00:00:00,
2013-06-25 19:04:00,63.2,61.2,29.77,NE,56,0.0,1.0,93,0.00,,BKN180,0.78,VWS V14.01,2013-06-26 00:04:00,
2013-06-25 19:05:00,63.2,61.2,29.77,NE,56,0.0,1.0,93,0.00,,FEW250,0.78,VWS V14.01,2013-06-26 00:05:00,
2013-06-25 19:09:00,63.0,61.0,29.76,NE,56,0.0,0.0,93,0.00,,BKN180,0.78,VWS V14.01,2013-06-26 00:09:00,
2013-06-25 19:10:00,63.0,61.0,29.76,NE,56,0.0,0.0,93,0.00,,FEW250,0.78,VWS V14.01,2013-06-26 00:10:00,
2013-06-25 19:14:00,62.7,60.7,29.76,NE,56,0.0,0.0,93,0.00,,BKN180,0.78,VWS V14.01,2013-06-26 00:14:00,
2013-06-25 19:15:00,62.7,60.7,29.76,NE,56,0.0,0.0,93,0.00,,FEW250,0.78,VWS V14.01,2013-06-26 00:15:00,
2013-06-25 19:19:00,62.6,60.8,29.76,NE,56,0.0,0.0,94,0.00,,BKN180,0.78,VWS V14.01,2013-06-26 00:19:00,
2013-06-25 19:20:00,62.6,60.8,29.76,NE,56,0.0,0.0,94,0.00,,FEW250,0.78,VWS V14.01,2013-06-26 00:20:00,
2013-06-25 19:24:00,62.6,61.5,29.76,NE,56,0.0,0.0,96,0.00,,BKN180,0.78,VWS V14.01,2013-06-26 00:24:00,
2013-06-25 19:25:00,62.6,61.5,29.76,NE,56,0.0,0.0,96,0.00,,FEW250,0.78,VWS V14.01,2013-06-26 00:25:00,
2013-06-25 19:29:00,62.5,60.8,29.75,NE,56,0.0,1.0,94,0.00,,BKN180,0.78,VWS V14.01,2013-06-26 00:29:00,
2013-06-25 19:30:00,62.5,60.8,29.75,NE,56,0.0,1.0,94,0.00,,FEW250,0.78,VWS V14.01,2013-06-26 00:30:00,
2013-06-25 19:34:00,62.4,60.7,29.75,NE,56,0.0,0.0,94,0.00,,BKN180,0.78,VWS V14.01,2013-06-26 00:34:00,
2013-06-25 19:35:00,62.4,60.7,29.75,NE,56,0.0,0.0,94,0.00,,FEW250,0.78,VWS V14.01,2013-06-26 00:35:00,
2013-06-25 19:39:00,62.2,60.5,29.75,NE,56,0.0,0.0,94,0.00,,BKN180,0.78,VWS V14.01,2013-06-26 00:39:00,
2013-06-25 19:40:00,62.2,60.5,29.75,NE,56,0.0,0.0,94,0.00,,FEW250,0.78,VWS V14.01,2013-06-26 00:40:00,
2013-06-25 19:44:00,62.2,60.5,29.75,NE,56,0.0,0.0,94,0.00,,BKN180,0.78,VWS V14.01,2013-06-26 00:44:00,
2013-06-25 19:45:00,62.2,60.5,29.75,NE,56,0.0,0.0,94,0.00,,FEW250,0.78,VWS V14.01,2013-06-26 00:45:00,
2013-06-25 19:49:00,62.3,60.8,29.75,NE,56,0.0,0.0,95,0.00,,BKN180,0.78,VWS V14.01,2013-06-26 00:49:00,
2013-06-25 19:50:00,62.3,60.8,29.75,NE,56,0.0,0.0,95,0.00,,FEW250,0.78,VWS V14.01,2013-06-26 00:50:00,
2013-06-25 19:54:00,62.6,61.2,29.75,NE,56,0.0,0.0,95,0.00,,BKN180,0.78,VWS V14.01,2013-06-26 00:54:00,
2013-06-25 19:55:00,62.6,61.2,29.75,NE,56,0.0,0.0,95,0.00,,FEW250,0.78,VWS V14.01,2013-06-26 00:55:00,
2013-06-25 19:59:00,62.9,61.5,29.75,NE,56,0.0,0.0,95,0.00,,BKN180,0.78,VWS V14.01,2013-06-26 00:59:00,
2013-06-25 20:00:00,62.9,61.5,29.75,NE,56,0.0,0.0,95,0.00,,FEW250,0.78,VWS V14.01,2013-06-26 01:00:00,
2013-06-25 20:05:00,63.4,62.0,29.75,NE,56,0.0,0.0,95,0.00,,,0.78,VWS V14.01,2013-06-26 01:05:00,
2013-06-25 20:10:00,63.8,62.3,29.75,NE,56,0.0,1.0,95,0.00,,,0.78,VWS V14.01,2013-06-26 01:10:00,
2013-06-25 20:15:00,64.3,62.8,29.74,South,185,0.0,0.0,95,0.00,,,0.78,VWS V14.01,2013-06-26 01:15:00,
2013-06-25 20:20:00,64.8,63.3,29.74,North,360,0.0,0.0,95,0.00,,,0.78,VWS V14.01,2013-06-26 01:20:00,
2013-06-25 20:25:00,65.1,63.6,29.74,South,185,0.0,0.0,95,0.00,,,0.78,VWS V14.01,2013-06-26 01:25:00,
2013-06-25 20:30:00,65.6,64.1,29.74,South,185,0.0,0.0,95,0.00,,,0.78,VWS V14.01,2013-06-26 01:30:00,
2013-06-25 20:35:00,66.0,64.5,29.73,South,185,0.0,0.0,95,0.00,,,0.78,VWS V14.01,2013-06-26 01:35:00,
2013-06-25 20:40:00,66.2,64.7,29.74,South,185,0.0,0.0,95,0.00,,,0.78,VWS V14.01,2013-06-26 01:40:00,
2013-06-25 20:45:00,66.4,64.6,29.74,North,360,0.0,1.0,94,0.00,,FEW250,0.78,VWS V14.01,2013-06-26 01:45:00,
2013-06-25 20:46:00,66.5,64.7,29.74,North,360,0.0,1.0,94,0.00,,,0.78,VWS V14.01,2013-06-26 01:46:00,
2013-06-25 20:50:00,66.9,65.1,29.74,South,183,0.0,4.0,94,0.00,,FEW250,0.78,VWS V14.01,2013-06-26 01:50:00,
2013-06-25 20:51:00,66.9,65.1,29.74,South,183,0.0,4.0,94,0.00,,,0.78,VWS V14.01,2013-06-26 01:51:00,
2013-06-25 20:55:00,67.0,64.9,29.74,South,183,0.0,0.0,93,0.00,,FEW250,0.78,VWS V14.01,2013-06-26 01:55:00,
2013-06-25 20:56:00,67.1,65.0,29.74,South,183,0.0,0.0,93,0.00,,,0.78,VWS V14.01,2013-06-26 01:56:00,
2013-06-25 21:00:00,67.1,65.0,29.74,South,183,0.0,0.0,93,0.00,,FEW250,0.78,VWS V14.01,2013-06-26 02:00:00,
2013-06-25 21:01:00,67.1,65.0,29.74,South,183,0.0,0.0,93,0.00,,,0.78,VWS V14.01,2013-06-26 02:01:00,
2013-06-25 21:05:00,67.2,65.1,29.74,South,183,0.0,0.0,93,0.00,,FEW250,0.78,VWS V14.01,2013-06-26 02:05:00,
2013-06-25 21:06:00,67.3,65.2,29.74,South,183,0.0,0.0,93,0.00,,,0.78,VWS V14.01,2013-06-26 02:06:00,
2013-06-25 21:10:00,67.4,65.3,29.74,South,183,0.0,0.0,93,0.00,,FEW250,0.78,VWS V14.01,2013-06-26 02:10:00,
2013-06-25 21:11:00,67.5,65.4,29.74,South,183,0.0,0.0,93,0.00,,,0.78,VWS V14.01,2013-06-26 02:11:00,
2013-06-25 21:15:00,67.5,65.4,29.74,South,183,0.0,0.0,93,0.00,,FEW250,0.78,VWS V14.01,2013-06-26 02:15:00,
2013-06-25 21:16:00,67.6,65.5,29.74,South,183,0.0,0.0,93,0.00,,,0.78,VWS V14.01,2013-06-26 02:16:00,
2013-06-25 21:20:00,67.7,65.6,29.74,South,183,0.0,0.0,93,0.00,,FEW250,0.78,VWS V14.01,2013-06-26 02:20:00,
2013-06-25 21:21:00,67.7,65.6,29.74,South,183,0.0,0.0,93,0.00,,,0.78,VWS V14.01,2013-06-26 02:21:00,
2013-06-25 21:25:00,67.8,65.4,29.74,South,183,0.0,0.0,92,0.00,,FEW250,0.78,VWS V14.01,2013-06-26 02:25:00,
2013-06-25 21:26:00,67.8,65.4,29.74,South,183,0.0,0.0,92,0.00,,,0.78,VWS V14.01,2013-06-26 02:26:00,
2013-06-25 21:30:00,67.8,65.4,29.74,South,183,0.0,0.0,92,0.00,,FEW250,0.78,VWS V14.01,2013-06-26 02:30:00,
2013-06-25 21:31:00,67.8,65.4,29.74,South,183,0.0,0.0,92,0.00,,,0.78,VWS V14.01,2013-06-26 02:31:00,
2013-06-25 21:35:00,67.8,65.4,29.74,South,183,0.0,0.0,92,0.00,,FEW250,0.78,VWS V14.01,2013-06-26 02:35:00,
2013-06-25 21:36:00,67.8,65.4,29.74,South,183,0.0,0.0,92,0.00,,,0.78,VWS V14.01,2013-06-26 02:36:00,
2013-06-25 21:40:00,67.7,65.3,29.74,South,183,0.0,0.0,92,0.00,,FEW250,0.78,VWS V14.01,2013-06-26 02:40:00,
2013-06-25 21:41:00,67.7,65.3,29.74,West,277,0.0,0.0,92,0.00,,,0.78,VWS V14.01,2013-06-26 02:41:00,
2013-06-25 21:45:00,67.5,65.1,29.74,West,278,0.0,0.0,92,0.00,,CLR,0.78,VWS V14.01,2013-06-26 02:45:00,
2013-06-25 21:46:00,67.4,65.0,29.74,West,278,0.0,0.0,92,0.00,,,0.78,VWS V14.01,2013-06-26 02:46:00,
2013-06-25 21:50:00,67.2,64.8,29.74,West,278,0.0,0.0,92,0.00,,FEW250,0.78,VWS V14.01,2013-06-26 02:50:00,
2013-06-25 21:52:00,67.1,65.0,29.74,West,278,0.0,0.0,93,0.00,,,0.78,VWS V14.01,2013-06-26 02:52:00,
2013-06-25 21:55:00,67.1,65.0,29.74,West,278,0.0,0.0,93,0.00,,FEW250,0.78,VWS V14.01,2013-06-26 02:55:00,
2013-06-25 21:57:00,67.2,65.1,29.75,West,277,0.0,0.0,93,0.00,,,0.78,VWS V14.01,2013-06-26 02:57:00,
2013-06-25 22:00:00,67.2,65.1,29.75,West,278,0.0,0.0,93,0.00,,FEW250,0.78,VWS V14.01,2013-06-26 03:00:00,
2013-06-25 22:02:00,67.2,65.1,29.75,West,278,0.0,0.0,93,0.00,,,0.78,VWS V14.01,2013-06-26 03:02:00,
2013-06-25 22:05:00,67.4,65.6,29.75,West,278,0.0,0.0,94,0.00,,FEW250,0.78,VWS V14.01,2013-06-26 03:05:00,
2013-06-25 22:07:00,67.4,65.3,29.75,West,277,0.0,0.0,93,0.00,,,0.78,VWS V14.01,2013-06-26 03:07:00,
2013-06-25 22:10:00,67.4,65.3,29.75,West,278,0.0,0.0,93,0.00,,FEW250,0.78,VWS V14.01,2013-06-26 03:10:00,
2013-06-25 22:12:00,67.0,64.6,29.75,NW,321,0.0,1.0,92,0.00,,,0.78,VWS V14.01,2013-06-26 03:12:00,
2013-06-25 22:15:00,66.3,63.9,29.76,NW,321,0.0,1.0,92,0.00,,FEW250,0.78,VWS V14.01,2013-06-26 03:15:00,
2013-06-25 22:17:00,65.8,63.4,29.76,NNE,13,0.0,0.0,92,0.00,,,0.78,VWS V14.01,2013-06-26 03:17:00,
2013-06-25 22:20:00,65.2,62.5,29.76,ENE,68,4.0,5.0,91,0.00,,FEW250,0.78,VWS V14.01,2013-06-26 03:20:00,
2013-06-25 22:22:00,64.4,61.7,29.75,ENE,66,0.0,5.0,91,0.00,,,0.78,VWS V14.01,2013-06-26 03:22:00,
2013-06-25 22:25:00,63.7,61.0,29.76,ENE,66,0.0,5.0,91,0.00,,FEW250,0.78,VWS V14.01,2013-06-26 03:25:00,
2013-06-25 22:27:00,63.2,60.8,29.76,ENE,59,0.0,4.0,92,0.00,,,0.78,VWS V14.01,2013-06-26 03:27:00,
2013-06-25 22:30:00,63.1,61.0,29.76,ENE,63,0.0,1.0,93,0.00,,FEW250,0.78,VWS V14.01,2013-06-26 03:30:00,
2013-06-25 22:32:00,62.9,61.2,29.76,East,79,0.0,1.0,94,0.00,,,0.78,VWS V14.01,2013-06-26 03:32:00,
2013-06-25 22:35:00,62.8,61.0,29.76,ENE,78,0.0,0.0,94,0.00,,FEW250,0.78,VWS V14.01,2013-06-26 03:35:00,
2013-06-25 22:37:00,62.8,61.3,29.76,East,83,0.0,1.0,95,0.00,,,0.78,VWS V14.01,2013-06-26 03:37:00,
2013-06-25 22:40:00,62.7,61.2,29.76,East,83,0.0,1.0,95,0.00,,FEW250,0.78,VWS V14.01,2013-06-26 03:40:00,
2013-06-25 22:42:00,62.7,61.2,29.76,East,83,0.0,2.0,95,0.00,,,0.78,VWS V14.01,2013-06-26 03:42:00,
2013-06-25 22:45:00,62.6,61.2,29.76,ENE,78,0.0,2.0,95,0.00,,FEW250,0.78,VWS V14.01,2013-06-26 03:45:00,
2013-06-25 22:47:00,62.4,61.0,29.76,East,88,0.0,1.0,95,0.00,,,0.78,VWS V14.01,2013-06-26 03:47:00,
2013-06-25 22:50:00,62.4,61.0,29.76,East,88,0.0,3.0,95,0.00,,FEW250,0.78,VWS V14.01,2013-06-26 03:50:00,
2013-06-25 22:52:00,62.2,60.8,29.76,ENE,76,0.0,5.0,95,0.00,,,0.78,VWS V14.01,2013-06-26 03:52:00,
2013-06-25 22:55:00,62.0,60.6,29.76,ENE,74,0.0,5.0,95,0.00,,FEW250,0.78,VWS V14.01,2013-06-26 03:55:00,
2013-06-25 22:57:00,61.9,60.5,29.76,ENE,74,0.0,0.0,95,0.00,,,0.78,VWS V14.01,2013-06-26 03:57:00,
2013-06-25 23:00:00,61.8,60.4,29.76,ENE,76,0.0,1.0,95,0.00,,FEW250,0.78,VWS V14.01,2013-06-26 04:00:00,
2013-06-25 23:01:00,61.7,60.3,29.76,ENE,76,0.0,1.0,95,0.00,,BKN180,0.78,VWS V14.01,2013-06-26 04:01:00,
2013-06-25 23:02:00,61.5,60.1,29.76,ENE,76,0.0,1.0,95,0.00,,BKN180,0.78,VWS V14.01,2013-06-26 04:02:00,
2013-06-25 23:05:00,61.4,60.0,29.76,ENE,76,0.0,0.0,95,0.00,,BKN180,0.78,VWS V14.01,2013-06-26 04:05:00,
2013-06-25 23:06:00,61.3,59.9,29.76,ENE,76,0.0,0.0,95,0.00,,BKN180,0.78,VWS V14.01,2013-06-26 04:06:00,
2013-06-25 23:09:00,61.3,60.2,29.76,ENE,76,0.0,0.0,96,0.00,,BKN180,0.78,VWS V14.01,2013-06-26 04:09:00,
2013-06-25 23:10:00,61.3,60.2,29.76,ENE,76,0.0,0.0,96,0.00,,FEW250,0.78,VWS V14.01,2013-06-26 04:10:00,
2013-06-25 23:14:00,61.4,60.2,29.76,ENE,76,0.0,0.0,96,0.00,,BKN180,0.78,VWS V14.01,2013-06-26 04:14:00,
2013-06-25 23:15:00,61.4,60.2,29.76,ENE,76,0.0,0.0,96,0.00,,FEW250,0.78,VWS V14.01,2013-06-26 04:15:00,
2013-06-25 23:19:00,61.5,60.3,29.76,ENE,76,0.0,0.0,96,0.00,,BKN180,0.78,VWS V14.01,2013-06-26 04:19:00,
2013-06-25 23:20:00,61.6,60.5,29.76,ENE,76,0.0,0.0,96,0.00,,FEW250,0.78,VWS V14.01,2013-06-26 04:20:00,
2013-06-25 23:24:00,61.8,60.9,29.76,ENE,76,0.0,0.0,97,0.00,,BKN180,0.78,VWS V14.01,2013-06-26 04:24:00,
2013-06-25 23:25:00,61.9,61.0,29.76,ENE,76,0.0,0.0,97,0.00,,FEW250,0.78,VWS V14.01,2013-06-26 04:25:00,
2013-06-25 23:29:00,62.3,61.4,29.76,ENE,76,0.0,0.0,97,0.00,,BKN180,0.78,VWS V14.01,2013-06-26 04:29:00,
2013-06-25 23:30:00,62.3,61.4,29.76,ENE,76,0.0,0.0,97,0.00,,FEW250,0.78,VWS V14.01,2013-06-26 04:30:00,
2013-06-25 23:34:00,62.6,61.7,29.76,ENE,76,0.0,0.0,97,0.00,,BKN180,0.78,VWS V14.01,2013-06-26 04:34:00,
2013-06-25 23:35:00,62.6,61.7,29.76,ENE,76,0.0,0.0,97,0.00,,FEW250,0.78,VWS V14.01,2013-06-26 04:35:00,
2013-06-25 23:39:00,62.7,61.5,29.76,ENE,76,0.0,0.0,96,0.00,,BKN180,0.78,VWS V14.01,2013-06-26 04:39:00,
2013-06-25 23:40:00,62.7,61.5,29.76,ENE,76,0.0,0.0,96,0.00,,FEW250,0.78,VWS V14.01,2013-06-26 04:40:00,
2013-06-25 23:44:00,62.7,61.5,29.76,ENE,76,0.0,0.0,96,0.00,,BKN180,0.78,VWS V14.01,2013-06-26 04:44:00,
2013-06-25 23:45:00,62.6,61.5,29.76,ENE,76,0.0,0.0,96,0.00,,FEW250,0.78,VWS V14.01,2013-06-26 04:45:00,
2013-06-25 23:49:00,62.7,61.5,29.75,ENE,76,0.0,0.0,96,0.00,,BKN180,0.78,VWS V14.01,2013-06-26 04:49:00,
2013-06-25 23:50:00,62.7,61.5,29.75,ENE,76,0.0,0.0,96,0.00,,FEW250,0.78,VWS V14.01,2013-06-26 04:50:00,
2013-06-25 23:54:00,62.9,61.8,29.75,ENE,76,0.0,0.0,96,0.00,,BKN180,0.78,VWS V14.01,2013-06-26 04:54:00,
2013-06-25 23:55:00,62.9,61.8,29.75,SSE,153,0.0,0.0,96,0.00,,FEW250,0.78,VWS V14.01,2013-06-26 04:55:00,
2013-06-25 23:59:00,63.2,62.3,29.75,SSE,152,0.0,1.0,97,0.00,,BKN180,0.78,VWS V14.01,2013-06-26 04:59:00,